TimeCDT,TemperatureF,Dew PointF,Humidity,Sea Level PressureIn,VisibilityMPH,Wind Direction,Wind SpeedMPH,Gust SpeedMPH,PrecipitationIn,Events,Conditions,WindDirDegrees,DateUTC
12:15 AM,55.4,44.6,67,29.82,10.0,WNW,17.3,-,N/A,,Clear,300,2013-05-21 05:15:00
12:35 AM,57.2,44.6,63,29.82,10.0,NW,17.3,23.0,N/A,,Clear,310,2013-05-21 05:35:00
12:55 AM,57.2,44.6,63,29.83,10.0,WNW,12.7,-,N/A,,Clear,290,2013-05-21 05:55:00
1:15 AM,55.4,42.8,63,29.84,10.0,West,13.8,-,N/A,,Clear,280,2013-05-21 06:15:00
1:35 AM,55.4,42.8,63,29.84,10.0,WNW,13.8,-,N/A,,Clear,290,2013-05-21 06:35:00
1:55 AM,53.6,42.8,67,29.84,10.0,WNW,13.8,-,N/A,,Clear,290,2013-05-21 06:55:00
2:15 AM,53.6,42.8,67,29.83,10.0,WNW,12.7,-,N/A,,Clear,300,2013-05-21 07:15:00
2:35 AM,53.6,42.8,67,29.82,10.0,WNW,13.8,-,N/A,,Clear,300,2013-05-21 07:35:00
2:55 AM,53.6,42.8,67,29.80,10.0,WNW,12.7,-,N/A,,Clear,300,2013-05-21 07:55:00
3:15 AM,53.6,42.8,67,29.81,10.0,WNW,11.5,-,N/A,,Clear,300,2013-05-21 08:15:00
3:35 AM,51.8,42.8,71,29.82,10.0,WNW,10.4,-,N/A,,Clear,290,2013-05-21 08:35:00
3:55 AM,51.8,42.8,71,29.82,10.0,West,9.2,-,N/A,,Clear,280,2013-05-21 08:55:00
4:15 AM,50.0,42.8,76,29.85,10.0,West,9.2,-,N/A,,Clear,260,2013-05-21 09:15:00
4:35 AM,50.0,42.8,76,29.84,10.0,West,11.5,-,N/A,,Clear,270,2013-05-21 09:35:00
4:55 AM,48.2,42.8,82,29.83,10.0,WNW,10.4,-,N/A,,Clear,300,2013-05-21 09:55:00
5:15 AM,50.0,42.8,76,29.83,10.0,WNW,12.7,-,N/A,,Clear,290,2013-05-21 10:15:00
5:35 AM,51.8,42.8,71,29.84,10.0,West,13.8,-,N/A,,Clear,280,2013-05-21 10:35:00
5:55 AM,51.8,41.0,67,29.84,10.0,WNW,13.8,-,N/A,,Clear,290,2013-05-21 10:55:00
6:15 AM,51.8,42.8,71,29.84,10.0,WNW,13.8,-,N/A,,Clear,300,2013-05-21 11:15:00
6:35 AM,51.8,41.0,67,29.85,10.0,WNW,10.4,-,N/A,,Clear,300,2013-05-21 11:35:00
6:55 AM,50.0,41.0,71,29.86,10.0,WNW,10.4,-,N/A,,Clear,290,2013-05-21 11:55:00
7:15 AM,50.0,42.8,76,29.86,10.0,WNW,10.4,-,N/A,,Clear,290,2013-05-21 12:15:00
7:35 AM,53.6,42.8,67,29.87,10.0,WNW,13.8,-,N/A,,Clear,300,2013-05-21 12:35:00
7:55 AM,55.4,44.6,67,29.86,10.0,WNW,16.1,-,N/A,,Clear,300,2013-05-21 12:55:00
8:15 AM,57.2,44.6,63,29.86,10.0,WNW,17.3,-,N/A,,Clear,300,2013-05-21 13:15:00
8:35 AM,59.0,42.8,55,29.86,10.0,WNW,17.3,25.3,N/A,,Clear,300,2013-05-21 13:35:00
8:55 AM,60.8,44.6,55,29.87,10.0,NW,19.6,24.2,N/A,,Clear,320,2013-05-21 13:55:00
9:15 AM,60.8,42.8,52,29.86,10.0,NW,21.9,27.6,N/A,,Clear,310,2013-05-21 14:15:00
9:35 AM,62.6,42.8,48,29.86,10.0,NW,16.1,27.6,N/A,,Clear,320,2013-05-21 14:35:00
9:55 AM,62.6,41.0,45,29.87,10.0,NW,21.9,33.4,N/A,,Clear,320,2013-05-21 14:55:00
10:15 AM,64.4,39.2,40,29.87,10.0,NW,21.9,-,N/A,,Clear,320,2013-05-21 15:15:00
10:35 AM,64.4,41.0,42,29.85,10.0,NNW,21.9,27.6,N/A,,Clear,330,2013-05-21 15:35:00
10:55 AM,66.2,41.0,40,29.84,10.0,NNW,17.3,28.8,N/A,,Clear,330,2013-05-21 15:55:00
11:15 AM,66.2,42.8,43,29.84,10.0,WNW,20.7,26.5,N/A,,Clear,300,2013-05-21 16:15:00
11:35 AM,66.2,42.8,43,29.82,10.0,NW,21.9,31.1,N/A,,Clear,320,2013-05-21 16:35:00
11:55 AM,68.0,42.8,40,29.82,10.0,WNW,23.0,29.9,N/A,,Clear,290,2013-05-21 16:55:00
12:15 PM,69.8,42.8,38,29.81,10.0,WNW,19.6,31.1,N/A,,Clear,300,2013-05-21 17:15:00
12:35 PM,69.8,42.8,38,29.80,10.0,NW,24.2,32.2,N/A,,Clear,320,2013-05-21 17:35:00
12:55 PM,71.6,42.8,35,29.79,10.0,NW,21.9,33.4,N/A,,Clear,310,2013-05-21 17:55:00
1:15 PM,71.6,42.8,35,29.82,10.0,WNW,16.1,26.5,N/A,,Clear,290,2013-05-21 18:15:00
1:35 PM,73.4,42.8,33,29.81,10.0,NNW,19.6,26.5,N/A,,Scattered Clouds,330,2013-05-21 18:35:00
1:55 PM,73.4,42.8,33,29.82,10.0,NW,17.3,27.6,N/A,,Mostly Cloudy,320,2013-05-21 18:55:00
2:15 PM,71.6,41.0,33,29.82,10.0,WNW,12.7,21.9,N/A,,Mostly Cloudy,290,2013-05-21 19:15:00
2:35 PM,71.6,41.0,33,29.82,10.0,NW,13.8,21.9,N/A,,Overcast,320,2013-05-21 19:35:00
2:55 PM,69.8,41.0,35,29.83,10.0,NW,11.5,16.1,N/A,,Overcast,310,2013-05-21 19:55:00
3:15 PM,71.6,42.8,35,29.82,10.0,NNW,9.2,19.6,N/A,,Overcast,340,2013-05-21 20:15:00
3:35 PM,71.6,42.8,35,29.81,10.0,NNW,15.0,-,N/A,,Overcast,330,2013-05-21 20:35:00
3:55 PM,73.4,42.8,33,29.80,10.0,NW,10.4,19.6,N/A,,Overcast,320,2013-05-21 20:55:00
4:15 PM,71.6,42.8,35,29.79,10.0,NNW,15.0,20.7,N/A,,Scattered Clouds,330,2013-05-21 21:15:00
4:35 PM,73.4,42.8,33,29.79,10.0,NW,17.3,23.0,N/A,,Partly Cloudy,310,2013-05-21 21:35:00
4:55 PM,73.4,42.8,33,29.79,10.0,NNW,15.0,24.2,N/A,,Partly Cloudy,330,2013-05-21 21:55:00
5:15 PM,73.4,42.8,33,29.78,10.0,NW,16.1,25.3,N/A,,Clear,320,2013-05-21 22:15:00
5:35 PM,71.6,41.0,33,29.78,10.0,NNW,16.1,24.2,N/A,,Clear,330,2013-05-21 22:35:00
5:55 PM,71.6,41.0,33,29.77,10.0,NW,19.6,24.2,N/A,,Clear,320,2013-05-21 22:55:00
6:15 PM,71.6,41.0,33,29.77,10.0,NW,15.0,25.3,N/A,,Clear,310,2013-05-21 23:15:00
6:35 PM,69.8,39.2,33,29.78,10.0,NW,16.1,-,N/A,,Clear,310,2013-05-21 23:35:00
6:55 PM,68.0,42.8,40,29.79,10.0,NNW,15.0,20.7,N/A,,Partly Cloudy,340,2013-05-21 23:55:00
7:15 PM,66.2,41.0,40,29.79,10.0,NNW,12.7,-,N/A,,Scattered Clouds,340,2013-05-22 00:15:00
7:35 PM,64.4,42.8,45,29.80,10.0,NNW,10.4,-,N/A,,Clear,340,2013-05-22 00:35:00
7:55 PM,66.2,42.8,43,29.80,10.0,NW,11.5,19.6,N/A,,Clear,320,2013-05-22 00:55:00
8:15 PM,64.4,42.8,45,29.81,10.0,NNW,10.4,-,N/A,,Clear,330,2013-05-22 01:15:00
8:35 PM,62.6,42.8,48,29.81,10.0,NNW,11.5,-,N/A,,Clear,330,2013-05-22 01:35:00
8:55 PM,62.6,41.0,45,29.82,10.0,NNW,10.4,-,N/A,,Clear,340,2013-05-22 01:55:00
9:15 PM,60.8,41.0,48,29.82,10.0,NNW,11.5,-,N/A,,Clear,340,2013-05-22 02:15:00
9:35 PM,59.0,41.0,51,29.83,10.0,North,11.5,-,N/A,,Clear,350,2013-05-22 02:35:00
9:55 PM,57.2,42.8,59,29.83,10.0,NNW,9.2,-,N/A,,Partly Cloudy,340,2013-05-22 02:55:00
10:15 PM,55.4,42.8,63,29.84,10.0,NNW,9.2,-,N/A,,Partly Cloudy,340,2013-05-22 03:15:00
10:35 PM,55.4,42.8,63,29.85,10.0,NNW,9.2,-,N/A,,Clear,330,2013-05-22 03:35:00
10:55 PM,55.4,42.8,63,29.86,10.0,NW,8.1,-,N/A,,Partly Cloudy,320,2013-05-22 03:55:00
11:15 PM,55.4,42.8,63,29.86,10.0,NW,9.2,-,N/A,,Partly Cloudy,320,2013-05-22 04:15:00
11:35 PM,53.6,42.8,67,29.86,10.0,NW,6.9,-,N/A,,Clear,320,2013-05-22 04:35:00
11:55 PM,53.6,42.8,67,29.86,10.0,NW,8.1,-,N/A,,Clear,320,2013-05-22 04:55:00